createdAt,value
2023-01-19T00:00:39.795Z,5.45
2023-01-19T00:03:15.757Z,4.75
2023-01-19T00:05:44.038Z,4.65
2023-01-19T00:08:17.514Z,5.28
2023-01-19T00:10:49.308Z,5.67
2023-01-19T00:13:16.385Z,5.30
2023-01-19T00:15:43.732Z,5.00
2023-01-19T00:18:11.098Z,5.18
2023-01-19T00:20:39.186Z,5.55
2023-01-19T00:23:07.957Z,5.80
2023-01-19T00:25:36.165Z,4.68
2023-01-19T00:28:03.252Z,5.63
2023-01-19T00:30:30.447Z,4.70
2023-01-19T00:32:57.800Z,4.38
2023-01-19T00:35:25.562Z,5.30
2023-01-19T00:37:52.663Z,4.97
2023-01-19T00:40:19.740Z,5.28
2023-01-19T00:42:48.493Z,5.22
2023-01-19T00:45:18.739Z,4.57
2023-01-19T00:47:46.770Z,4.87
2023-01-19T00:50:16.725Z,4.47
2023-01-19T00:52:44.443Z,4.57
2023-01-19T00:55:13.663Z,3.70
2023-01-19T00:57:41.192Z,4.13
2023-01-19T01:00:11.682Z,4.50
2023-01-19T01:02:40.566Z,4.35
2023-01-19T01:05:08.817Z,4.80
2023-01-19T01:07:44.596Z,6.10
2023-01-19T01:10:17.941Z,5.10
2023-01-19T01:12:56.427Z,3.70
2023-01-19T01:15:27.625Z,3.50
2023-01-19T01:17:55.849Z,4.18
2023-01-19T01:20:27.941Z,4.60
2023-01-19T01:22:56.594Z,4.45
2023-01-19T01:25:25.297Z,4.00
2023-01-19T01:27:53.022Z,3.95
2023-01-19T01:30:20.548Z,4.10
2023-01-19T01:32:47.903Z,4.00
2023-01-19T01:35:15.611Z,3.85
2023-01-19T01:37:43.024Z,4.47
2023-01-19T01:40:15.093Z,3.80
2023-01-19T01:42:42.857Z,3.95
2023-01-19T01:45:29.230Z,4.28
2023-01-19T01:48:27.011Z,4.47
2023-01-19T01:51:16.710Z,4.10
2023-01-19T01:53:45.899Z,4.18
2023-01-19T01:56:16.195Z,3.55
2023-01-19T01:58:43.679Z,3.30
2023-01-19T02:01:29.776Z,3.72
2023-01-19T02:03:58.922Z,3.50
2023-01-19T02:06:26.487Z,3.80
2023-01-19T02:09:27.755Z,3.33
2023-01-19T02:12:13.615Z,3.78
2023-01-19T02:14:40.824Z,3.60
2023-01-19T02:17:07.962Z,3.10
2023-01-19T02:19:42.044Z,3.53
2023-01-19T02:22:35.816Z,3.30
2023-01-19T02:25:06.336Z,3.47
2023-01-19T02:27:33.934Z,3.40
2023-01-19T02:30:03.628Z,3.73
2023-01-19T02:32:31.070Z,2.90
2023-01-19T02:34:58.305Z,3.03
2023-01-19T02:37:28.470Z,3.58
2023-01-19T02:39:58.741Z,2.58
2023-01-19T02:42:29.463Z,3.53
2023-01-19T02:44:57.318Z,3.17
2023-01-19T02:47:24.697Z,2.88
2023-01-19T02:49:58.785Z,2.60
2023-01-19T02:52:27.001Z,3.53
2023-01-19T02:55:18.122Z,3.40
2023-01-19T02:58:15.016Z,2.92
2023-01-19T03:00:52.488Z,2.63
2023-01-19T03:03:29.276Z,2.78
2023-01-19T03:06:06.084Z,1.92
2023-01-19T03:09:01.037Z,2.17
2023-01-19T03:11:33.514Z,2.10
2023-01-19T03:14:11.477Z,2.20
2023-01-19T03:16:45.409Z,2.20
2023-01-19T03:19:15.042Z,2.38
2023-01-19T03:21:47.198Z,2.93
2023-01-19T03:24:15.532Z,3.00
2023-01-19T03:26:45.878Z,2.67
2023-01-19T03:29:14.091Z,2.90
2023-01-19T03:31:44.596Z,2.83
2023-01-19T03:34:13.510Z,3.07
2023-01-19T03:36:42.078Z,2.72
2023-01-19T03:39:10.189Z,2.70
2023-01-19T03:41:38.432Z,2.80
2023-01-19T03:44:06.236Z,2.60
2023-01-19T03:46:33.874Z,1.93
2023-01-19T03:49:00.984Z,2.40
2023-01-19T03:51:28.084Z,2.08
2023-01-19T03:53:55.140Z,2.05
2023-01-19T03:56:24.471Z,2.65
2023-01-19T03:58:51.985Z,2.13
2023-01-19T04:01:23.027Z,2.83
2023-01-19T04:03:53.523Z,2.53
2023-01-19T04:06:21.387Z,2.50
2023-01-19T04:08:49.629Z,2.55
2023-01-19T04:11:16.792Z,1.90
2023-01-19T04:13:44.713Z,2.22
2023-01-19T04:16:11.871Z,1.95
2023-01-19T04:18:39.199Z,1.58
2023-01-19T04:21:07.433Z,2.20
2023-01-19T04:23:35.015Z,1.60
2023-01-19T04:26:04.367Z,2.13
2023-01-19T04:28:32.461Z,1.80
2023-01-19T04:30:59.769Z,1.75
2023-01-19T04:33:27.818Z,2.10
2023-01-19T04:35:56.029Z,1.80
2023-01-19T04:38:24.041Z,2.45
2023-01-19T04:40:52.777Z,2.22
2023-01-19T04:43:20.524Z,2.72
2023-01-19T04:45:47.914Z,2.58
2023-01-19T04:48:15.737Z,1.87
2023-01-19T04:50:42.837Z,2.10
2023-01-19T04:53:10.924Z,2.20
2023-01-19T04:55:38.790Z,1.90
2023-01-19T04:58:05.885Z,2.05
2023-01-19T05:00:33.584Z,1.90
2023-01-19T05:03:01.662Z,2.38
2023-01-19T05:05:29.470Z,1.75
2023-01-19T05:07:56.525Z,2.10
2023-01-19T05:10:23.878Z,2.35
2023-01-19T05:12:51.373Z,1.90
2023-01-19T05:15:18.501Z,2.40
2023-01-19T05:17:46.218Z,2.05
2023-01-19T05:20:16.047Z,2.03
2023-01-19T05:22:48.833Z,1.65
2023-01-19T05:25:15.982Z,2.23
2023-01-19T05:27:43.375Z,2.03
2023-01-19T05:30:11.535Z,1.90
2023-01-19T05:32:38.613Z,2.22
2023-01-19T05:35:06.047Z,2.60
2023-01-19T05:37:33.188Z,2.50
2023-01-19T05:40:00.213Z,2.97
2023-01-19T05:42:27.327Z,1.92
2023-01-19T05:44:54.417Z,2.72
2023-01-19T05:47:21.559Z,2.50
2023-01-19T05:49:48.595Z,2.80
2023-01-19T05:52:15.667Z,2.42
2023-01-19T05:54:42.850Z,2.45
2023-01-19T05:57:10.688Z,2.25
2023-01-19T05:59:37.861Z,2.25
2023-01-19T06:02:04.994Z,2.33
2023-01-19T06:04:34.232Z,1.98
2023-01-19T06:07:02.366Z,2.25
2023-01-19T06:09:29.631Z,2.17
2023-01-19T06:11:57.916Z,2.55
2023-01-19T06:14:26.215Z,2.67
2023-01-19T06:16:53.411Z,2.63
2023-01-19T06:19:20.790Z,2.47
2023-01-19T06:21:49.813Z,2.40
2023-01-19T06:24:16.944Z,2.72
2023-01-19T06:26:44.010Z,3.37
2023-01-19T06:29:12.198Z,3.35
2023-01-19T06:31:39.448Z,3.22
2023-01-19T06:34:06.687Z,3.30
2023-01-19T06:36:33.876Z,3.72
2023-01-19T06:39:03.593Z,3.30
2023-01-19T06:41:30.656Z,3.47
2023-01-19T06:43:57.725Z,3.45
2023-01-19T06:46:25.138Z,3.20
2023-01-19T06:48:52.200Z,3.78
2023-01-19T06:51:19.315Z,3.10
2023-01-19T06:53:46.384Z,3.20
2023-01-19T06:56:13.500Z,4.20
2023-01-19T06:58:42.126Z,2.97
2023-01-19T07:01:09.788Z,3.35
2023-01-19T07:03:37.987Z,2.50
2023-01-19T07:06:06.713Z,2.80
2023-01-19T07:08:34.744Z,3.25
2023-01-19T07:11:24.733Z,3.20
2023-01-19T07:13:57.051Z,3.53
2023-01-19T07:16:24.313Z,3.37
2023-01-19T07:18:51.693Z,3.40
2023-01-19T07:21:19.165Z,3.10
2023-01-19T07:23:53.680Z,3.17
2023-01-19T07:26:21.621Z,3.20
2023-01-19T07:28:49.378Z,3.27
2023-01-19T07:31:16.743Z,3.17
2023-01-19T07:33:44.376Z,2.92
2023-01-19T07:36:11.483Z,3.28
2023-01-19T07:38:38.549Z,3.10
2023-01-19T07:41:07.306Z,3.37
2023-01-19T07:43:34.389Z,3.05
2023-01-19T07:46:03.649Z,3.45
2023-01-19T07:48:30.805Z,2.55
2023-01-19T07:51:01.400Z,3.10
2023-01-19T07:53:28.735Z,2.57
2023-01-19T07:55:56.777Z,2.47
2023-01-19T07:58:24.612Z,2.10
2023-01-19T08:00:52.328Z,2.47
2023-01-19T08:03:19.586Z,3.00
2023-01-19T08:05:50.269Z,2.30
2023-01-19T08:08:17.656Z,2.03
2023-01-19T08:10:45.135Z,3.10
2023-01-19T08:13:12.269Z,2.45
2023-01-19T08:15:39.413Z,2.40
2023-01-19T08:18:06.919Z,3.73
2023-01-19T08:20:33.963Z,5.00
2023-01-19T08:23:02.867Z,2.70
2023-01-19T08:25:35.184Z,2.45
2023-01-19T08:28:02.867Z,2.60
2023-01-19T08:30:30.351Z,2.20
2023-01-19T08:33:04.016Z,1.88
2023-01-19T08:35:33.058Z,2.25
2023-01-19T08:38:01.681Z,1.75
2023-01-19T08:40:36.268Z,1.58
2023-01-19T08:43:07.672Z,1.27
2023-01-19T08:45:48.089Z,2.42
2023-01-19T08:48:16.975Z,1.90
2023-01-19T08:50:46.522Z,3.78
2023-01-19T08:53:13.643Z,4.40
2023-01-19T08:55:40.907Z,1.80
2023-01-19T08:58:08.798Z,1.80
2023-01-19T09:00:40.294Z,2.35
2023-01-19T09:03:09.534Z,2.28
2023-01-19T09:05:39.182Z,2.53
2023-01-19T09:08:13.285Z,2.10
2023-01-19T09:10:45.891Z,2.40
2023-01-19T09:13:14.084Z,2.95
2023-01-19T09:15:41.623Z,2.17
2023-01-19T09:18:15.161Z,2.55
2023-01-19T09:20:43.787Z,5.47
2023-01-19T09:23:15.580Z,3.70
2023-01-19T09:25:44.017Z,2.65
2023-01-19T09:28:12.561Z,2.67
2023-01-19T09:30:40.730Z,2.22
2023-01-19T09:33:11.106Z,2.30
2023-01-19T09:35:39.098Z,2.53
2023-01-19T09:38:10.156Z,2.22
2023-01-19T09:40:42.251Z,1.75
2023-01-19T09:43:28.176Z,2.78
2023-01-19T09:45:58.568Z,3.47
2023-01-19T09:48:45.731Z,2.63
2023-01-19T09:51:22.988Z,1.88
2023-01-19T09:53:52.842Z,2.80
2023-01-19T09:56:20.783Z,3.22
2023-01-19T09:58:49.653Z,2.10
2023-01-19T10:01:27.585Z,2.90
2023-01-19T10:04:14.709Z,3.03
2023-01-19T10:06:42.364Z,3.15
2023-01-19T10:09:15.460Z,2.75
2023-01-19T10:11:53.467Z,3.40
2023-01-19T10:14:44.569Z,2.88
2023-01-19T10:17:32.211Z,3.28
2023-01-19T10:20:01.365Z,3.20
2023-01-19T10:22:28.769Z,3.25
2023-01-19T10:24:58.699Z,2.73
2023-01-19T10:27:30.852Z,3.17
2023-01-19T10:29:58.355Z,1.92
2023-01-19T10:32:27.450Z,2.42
2023-01-19T10:34:54.948Z,2.05
2023-01-19T10:37:27.764Z,2.33
2023-01-19T10:39:57.700Z,3.25
2023-01-19T10:42:29.080Z,2.38
2023-01-19T10:44:56.496Z,2.78
2023-01-19T10:47:30.724Z,3.30
2023-01-19T10:49:57.873Z,3.27
2023-01-19T10:52:39.716Z,1.65
2023-01-19T10:55:07.929Z,3.40
2023-01-19T10:57:38.334Z,5.22
2023-01-19T11:00:07.433Z,3.90
2023-01-19T11:02:34.604Z,3.63
2023-01-19T11:05:23.089Z,4.25
2023-01-19T11:07:50.143Z,2.95
2023-01-19T11:10:23.109Z,3.17
2023-01-19T11:13:01.523Z,3.58
2023-01-19T11:15:32.720Z,4.40
2023-01-19T11:18:00.508Z,4.18
2023-01-19T11:20:30.051Z,3.83
2023-01-19T11:23:16.299Z,3.15
2023-01-19T11:25:46.543Z,3.45
2023-01-19T11:28:19.032Z,3.70
2023-01-19T11:30:56.530Z,4.15
2023-01-19T11:33:33.357Z,3.53
2023-01-19T11:36:26.000Z,4.75
2023-01-19T11:38:55.089Z,4.20
2023-01-19T11:41:28.962Z,3.13
2023-01-19T11:44:21.228Z,3.20
2023-01-19T11:46:53.630Z,2.85
2023-01-19T11:49:38.239Z,3.63
2023-01-19T11:52:37.815Z,2.25
2023-01-19T11:55:23.312Z,3.00
2023-01-19T11:57:54.224Z,2.90
2023-01-19T12:00:28.933Z,3.58
2023-01-19T12:03:06.860Z,3.90
2023-01-19T12:05:35.159Z,3.55
2023-01-19T12:08:06.723Z,2.90
2023-01-19T12:10:38.198Z,3.15
2023-01-19T12:13:05.305Z,3.25
2023-01-19T12:15:39.080Z,3.50
2023-01-19T12:18:07.651Z,3.42
2023-01-19T12:20:40.988Z,4.13
2023-01-19T12:23:34.488Z,2.70
2023-01-19T12:26:06.733Z,3.22
2023-01-19T12:28:37.550Z,3.33
2023-01-19T12:31:05.072Z,3.22
2023-01-19T12:33:40.058Z,3.77
2023-01-19T12:36:10.298Z,3.97
2023-01-19T12:38:47.674Z,3.20
2023-01-19T12:41:38.891Z,2.75
2023-01-19T12:44:12.144Z,3.15
2023-01-19T12:47:06.530Z,3.83
2023-01-19T12:49:39.838Z,4.65
2023-01-19T12:52:20.444Z,2.42
2023-01-19T12:54:53.495Z,2.50
2023-01-19T12:57:28.332Z,3.00
2023-01-19T13:00:16.737Z,2.23
2023-01-19T13:02:46.926Z,3.38
2023-01-19T13:05:18.287Z,4.45
2023-01-19T13:08:07.862Z,3.67
2023-01-19T13:10:59.183Z,4.80
2023-01-19T13:13:32.694Z,4.80
2023-01-19T13:16:19.819Z,4.05
2023-01-19T13:18:53.516Z,4.43
2023-01-19T13:21:29.116Z,4.85
2023-01-19T13:24:01.695Z,3.05
2023-01-19T13:26:35.833Z,4.40
2023-01-19T13:29:10.567Z,2.30
2023-01-19T13:31:39.602Z,3.75
2023-01-19T13:34:15.252Z,3.67
2023-01-19T13:36:45.562Z,3.65
2023-01-19T13:39:18.404Z,3.20
2023-01-19T13:41:46.707Z,3.00
2023-01-19T13:44:36.416Z,3.97
2023-01-19T13:47:04.051Z,3.58
2023-01-19T13:49:40.599Z,3.47
2023-01-19T13:52:22.528Z,3.27
2023-01-19T13:54:50.359Z,3.30
2023-01-19T13:57:40.761Z,3.17
2023-01-19T14:00:17.002Z,2.85
2023-01-19T14:03:00.669Z,1.98
2023-01-19T14:05:43.909Z,2.40
2023-01-19T14:08:14.002Z,2.25
2023-01-19T14:10:41.991Z,2.00
2023-01-19T14:13:15.051Z,1.40
2023-01-19T14:15:42.496Z,2.42
2023-01-19T14:18:18.886Z,1.70
2023-01-19T14:21:01.830Z,1.88
2023-01-19T14:23:42.208Z,2.72
2023-01-19T14:26:56.194Z,2.03
2023-01-19T14:29:34.480Z,3.97
2023-01-19T14:32:01.424Z,2.60
2023-01-19T14:34:41.505Z,2.13
2023-01-19T14:37:29.552Z,2.47
2023-01-19T14:40:14.847Z,2.53
2023-01-19T14:42:55.047Z,2.50
2023-01-19T14:45:26.792Z,2.17
2023-01-19T14:47:55.230Z,2.50
2023-01-19T14:50:31.214Z,2.40
2023-01-19T14:53:03.444Z,3.47
2023-01-19T14:55:33.406Z,3.40
2023-01-19T14:58:00.477Z,2.63
2023-01-19T15:00:27.834Z,2.80
2023-01-19T15:02:55.044Z,3.33
2023-01-19T15:05:23.000Z,2.92
2023-01-19T15:07:50.332Z,3.10
2023-01-19T15:10:20.745Z,2.90
2023-01-19T15:12:49.095Z,1.42
2023-01-19T15:15:22.783Z,3.15
2023-01-19T15:17:50.263Z,2.83
2023-01-19T15:20:21.788Z,1.65
2023-01-19T15:22:49.431Z,1.67
2023-01-19T15:25:19.268Z,1.33
2023-01-19T15:27:47.417Z,3.10
2023-01-19T15:30:27.954Z,2.80
2023-01-19T15:32:55.139Z,4.18
2023-01-19T15:35:23.738Z,2.50
2023-01-19T15:37:51.063Z,2.63
2023-01-19T15:40:19.774Z,2.53
2023-01-19T15:42:47.209Z,3.60
2023-01-19T15:45:32.137Z,1.92
2023-01-19T15:48:04.296Z,2.43
2023-01-19T15:50:32.103Z,2.95
2023-01-19T15:52:59.440Z,3.35
2023-01-19T15:55:26.583Z,2.92
2023-01-19T15:57:53.647Z,2.40
2023-01-19T16:00:23.948Z,2.40
2023-01-19T16:02:52.114Z,2.70
2023-01-19T16:05:19.283Z,2.50
2023-01-19T16:07:46.586Z,2.55
2023-01-19T16:10:13.834Z,2.60
2023-01-19T16:12:41.044Z,2.27
2023-01-19T16:15:08.869Z,2.50
2023-01-19T16:17:36.664Z,1.85
2023-01-19T16:20:04.924Z,1.40
2023-01-19T16:22:32.213Z,2.70
2023-01-19T16:24:59.289Z,2.07
2023-01-19T16:27:27.743Z,2.53
2023-01-19T16:29:54.804Z,2.70
2023-01-19T16:32:22.034Z,2.13
2023-01-19T16:34:49.277Z,2.22
2023-01-19T16:37:16.310Z,2.10
2023-01-19T16:39:45.388Z,2.95
2023-01-19T16:42:12.614Z,2.30
2023-01-19T16:44:39.715Z,1.75
2023-01-19T16:47:06.759Z,2.70
2023-01-19T16:49:34.507Z,3.10
2023-01-19T16:52:01.822Z,2.50
2023-01-19T16:54:29.224Z,2.67
2023-01-19T16:56:57.292Z,1.85
2023-01-19T16:59:27.158Z,1.50
2023-01-19T17:01:55.083Z,2.87
2023-01-19T17:04:22.876Z,2.47
2023-01-19T17:06:50.157Z,2.55
2023-01-19T17:09:17.642Z,2.40
2023-01-19T17:11:44.922Z,2.35
2023-01-19T17:14:14.238Z,2.40
2023-01-19T17:16:41.565Z,3.03
2023-01-19T17:19:12.935Z,3.20
2023-01-19T17:21:40.187Z,3.30
2023-01-19T17:24:07.630Z,2.40
2023-01-19T17:26:34.825Z,3.13
2023-01-19T17:29:03.482Z,2.75
2023-01-19T17:31:32.106Z,3.22
2023-01-19T17:33:59.906Z,2.08
2023-01-19T17:36:28.329Z,3.13
2023-01-19T17:38:57.608Z,3.17
2023-01-19T17:41:27.536Z,2.42
2023-01-19T17:43:54.655Z,3.25
2023-01-19T17:46:24.934Z,3.22
2023-01-19T17:48:56.488Z,1.40
2023-01-19T17:51:23.755Z,3.83
2023-01-19T17:53:51.488Z,3.47
2023-01-19T17:56:22.918Z,3.30
2023-01-19T17:58:50.060Z,3.58
2023-01-19T18:01:21.026Z,3.13
2023-01-19T18:03:48.175Z,3.43
2023-01-19T18:06:15.318Z,3.60
2023-01-19T18:08:46.107Z,2.88
2023-01-19T18:11:13.853Z,2.10
2023-01-19T18:13:43.272Z,3.30
2023-01-19T18:16:12.919Z,2.53
2023-01-19T18:18:40.614Z,3.28
2023-01-19T18:21:09.595Z,3.58
2023-01-19T18:23:36.888Z,3.05
2023-01-19T18:26:06.876Z,3.53
2023-01-19T18:28:34.189Z,3.90
2023-01-19T18:31:01.773Z,3.17
2023-01-19T18:33:29.057Z,4.28
2023-01-19T18:35:56.235Z,4.05
2023-01-19T18:38:23.358Z,3.72
2023-01-19T18:41:00.592Z,3.93
2023-01-19T18:43:27.774Z,3.83
2023-01-19T18:45:55.037Z,3.40
2023-01-19T18:48:22.300Z,3.63
2023-01-19T18:50:49.862Z,3.50
2023-01-19T18:53:17.079Z,3.70
2023-01-19T18:55:54.783Z,3.58
2023-01-19T18:58:22.239Z,3.80
2023-01-19T19:00:49.722Z,3.80
2023-01-19T19:03:17.490Z,3.80
2023-01-19T19:05:44.662Z,1.93
2023-01-19T19:08:11.855Z,2.00
2023-01-19T19:10:42.032Z,3.70
2023-01-19T19:13:11.975Z,3.38
2023-01-19T19:15:39.239Z,2.85
2023-01-19T19:18:09.128Z,4.43
2023-01-19T19:20:41.442Z,3.85
2023-01-19T19:23:08.614Z,3.58
2023-01-19T19:25:35.934Z,3.42
2023-01-19T19:28:03.388Z,3.28
2023-01-19T19:30:30.988Z,3.90
2023-01-19T19:32:59.887Z,2.78
2023-01-19T19:35:27.905Z,3.83
2023-01-19T19:37:57.659Z,3.08
2023-01-19T19:40:27.702Z,4.30
2023-01-19T19:42:58.798Z,4.47
2023-01-19T19:45:29.146Z,3.85
2023-01-19T19:47:57.931Z,4.10
2023-01-19T19:50:25.784Z,4.47
2023-01-19T19:52:53.943Z,4.22
2023-01-19T19:55:24.260Z,4.10
2023-01-19T19:57:52.720Z,3.95
2023-01-19T20:00:20.237Z,4.28
2023-01-19T20:02:50.511Z,5.10
2023-01-19T20:05:17.672Z,4.45
2023-01-19T20:07:47.411Z,4.30
2023-01-19T20:10:15.187Z,4.82
2023-01-19T20:12:42.967Z,4.43
2023-01-19T20:15:11.318Z,5.63
2023-01-19T20:17:38.571Z,3.95
2023-01-19T20:20:06.279Z,5.00
2023-01-19T20:22:33.895Z,4.57
2023-01-19T20:25:01.191Z,7.95
2023-01-19T20:27:28.384Z,4.28
2023-01-19T20:29:58.166Z,5.45
2023-01-19T20:32:25.227Z,5.33
2023-01-19T20:34:52.902Z,4.65
2023-01-19T20:37:20.343Z,5.22
2023-01-19T20:39:47.423Z,5.90
2023-01-19T20:42:16.481Z,4.85
2023-01-19T20:44:43.616Z,6.07
2023-01-19T20:47:10.663Z,4.80
2023-01-19T20:49:39.660Z,4.82
2023-01-19T20:52:06.888Z,5.45
2023-01-19T20:54:34.255Z,5.50
2023-01-19T20:57:01.353Z,4.83
2023-01-19T20:59:28.532Z,6.00
2023-01-19T21:01:55.845Z,7.88
2023-01-19T21:04:23.187Z,6.63
2023-01-19T21:06:50.260Z,5.05
2023-01-19T21:09:18.550Z,5.60
2023-01-19T21:11:45.825Z,4.90
2023-01-19T21:14:12.956Z,6.20
2023-01-19T21:16:40.120Z,5.78
2023-01-19T21:19:07.473Z,5.85
2023-01-19T21:21:34.571Z,5.77
2023-01-19T21:24:02.389Z,4.65
2023-01-19T21:26:30.286Z,4.43
2023-01-19T21:28:58.745Z,5.35
2023-01-19T21:31:27.778Z,4.60
2023-01-19T21:33:55.847Z,3.73
2023-01-19T21:36:23.473Z,4.82
2023-01-19T21:38:55.455Z,5.78
2023-01-19T21:41:22.676Z,5.25
2023-01-19T21:43:49.743Z,6.28
2023-01-19T21:46:21.685Z,5.33
2023-01-19T21:48:48.775Z,5.85
2023-01-19T21:51:16.056Z,6.18
2023-01-19T21:53:43.255Z,9.35
2023-01-19T21:56:11.335Z,6.70
2023-01-19T21:58:38.631Z,5.70
2023-01-19T22:01:10.805Z,6.07
2023-01-19T22:03:38.092Z,6.80
2023-01-19T22:06:06.629Z,5.30
2023-01-19T22:08:34.048Z,5.68
2023-01-19T22:11:09.845Z,6.50
2023-01-19T22:13:38.711Z,6.20
2023-01-19T22:16:11.174Z,5.60
2023-01-19T22:18:39.820Z,5.82
2023-01-19T22:21:17.769Z,6.70
2023-01-19T22:23:48.702Z,6.10
2023-01-19T22:26:16.309Z,6.10
2023-01-19T22:28:43.367Z,6.30
2023-01-19T22:31:15.680Z,5.47
2023-01-19T22:33:43.281Z,5.72
2023-01-19T22:36:14.688Z,5.63
2023-01-19T22:38:42.523Z,5.30
2023-01-19T22:41:14.111Z,5.25
2023-01-19T22:43:41.200Z,6.05
2023-01-19T22:46:08.880Z,5.40
2023-01-19T22:48:36.118Z,5.17
2023-01-19T22:51:03.585Z,5.25
2023-01-19T22:53:31.439Z,5.57
2023-01-19T22:55:58.509Z,5.25
2023-01-19T22:58:25.584Z,5.65
2023-01-19T23:00:52.735Z,5.10
2023-01-19T23:03:19.837Z,5.28
2023-01-19T23:05:46.936Z,5.07
2023-01-19T23:08:14.001Z,6.13
2023-01-19T23:10:41.109Z,5.30
2023-01-19T23:13:08.168Z,5.07
2023-01-19T23:15:35.252Z,5.50
2023-01-19T23:18:02.531Z,5.15
2023-01-19T23:20:29.636Z,5.90
2023-01-19T23:22:56.707Z,5.53
2023-01-19T23:25:23.747Z,6.17
2023-01-19T23:27:50.857Z,5.80
2023-01-19T23:30:17.950Z,6.18
2023-01-19T23:32:49.368Z,6.03
2023-01-19T23:35:16.539Z,6.57
2023-01-19T23:37:43.660Z,6.03
2023-01-19T23:40:11.432Z,5.85
2023-01-19T23:42:38.548Z,6.38
2023-01-19T23:45:06.395Z,6.70
2023-01-19T23:47:35.402Z,6.28
2023-01-19T23:50:03.869Z,6.13
2023-01-19T23:52:31.473Z,7.35
2023-01-19T23:54:58.543Z,6.65
2023-01-19T23:57:25.644Z,6.93
2023-01-19T23:59:52.676Z,6.82
